createdAt,value
2023-03-07T00:01:49.574Z,26.3
2023-03-07T00:07:41.990Z,26.1
2023-03-07T00:13:04.524Z,27.6
2023-03-07T00:18:57.552Z,30.3
2023-03-07T00:24:34.558Z,27.6
2023-03-07T00:30:12.358Z,26.6
2023-03-07T00:36:04.554Z,26.3
2023-03-07T00:41:56.855Z,28.3
2023-03-07T00:47:34.081Z,30.9
2023-03-07T00:53:11.014Z,27.2
2023-03-07T00:58:48.382Z,26.6
2023-03-07T01:04:10.507Z,26.3
2023-03-07T01:09:47.993Z,27.7
2023-03-07T01:15:25.154Z,30.5
2023-03-07T01:20:47.036Z,27.6
2023-03-07T01:26:39.760Z,26.6
2023-03-07T01:32:17.201Z,26.3
2023-03-07T01:38:09.754Z,27.9
2023-03-07T01:44:02.831Z,30.9
2023-03-07T01:49:39.740Z,27.1
2023-03-07T01:55:00.861Z,26.3
2023-03-07T02:00:38.994Z,26
2023-03-07T02:06:31.410Z,29.6
2023-03-07T02:12:07.473Z,28.3
2023-03-07T02:18:00.842Z,26.6
2023-03-07T02:23:37.121Z,26.2
2023-03-07T02:29:29.757Z,28.1
2023-03-07T02:35:22.284Z,30.7
2023-03-07T02:40:59.209Z,26.9
2023-03-07T02:46:51.333Z,26.3
2023-03-07T02:52:28.461Z,26.3
2023-03-07T02:57:49.711Z,30.3
2023-03-07T03:03:12.047Z,27.8
2023-03-07T03:09:04.983Z,26.6
2023-03-07T03:14:59.137Z,26.3
2023-03-07T03:20:52.093Z,28.2
2023-03-07T03:26:45.797Z,30.9
2023-03-07T03:32:38.396Z,27.2
2023-03-07T03:38:30.920Z,26.5
2023-03-07T03:44:24.571Z,26.3
2023-03-07T03:50:17.636Z,29.2
2023-03-07T03:56:09.739Z,29.3
2023-03-07T04:02:02.540Z,26.9
2023-03-07T04:07:55.559Z,26.4
2023-03-07T04:13:47.907Z,25.9
2023-03-07T04:19:41.462Z,29.9
2023-03-07T04:25:18.087Z,28
2023-03-07T04:30:55.625Z,26.7
2023-03-07T04:36:49.071Z,26.3
2023-03-07T04:42:25.371Z,27
2023-03-07T04:48:05.954Z,30.4
2023-03-07T04:53:28.526Z,27.8
2023-03-07T04:58:50.592Z,26.6
2023-03-07T05:04:45.188Z,26.3
2023-03-07T05:10:40.002Z,28.4
2023-03-07T05:16:32.287Z,30.7
2023-03-07T05:22:25.157Z,27.1
2023-03-07T05:28:17.112Z,26.3
2023-03-07T05:34:09.675Z,25.9
2023-03-07T05:39:46.690Z,29.7
2023-03-07T05:45:40.139Z,28.2
2023-03-07T05:51:18.002Z,26.6
2023-03-07T05:57:10.381Z,26.2
2023-03-07T06:03:04.522Z,27.1
2023-03-07T06:08:59.708Z,30.6
2023-03-07T06:14:53.327Z,27.4
2023-03-07T06:20:46.758Z,26.4
2023-03-07T06:26:24.453Z,26.1
2023-03-07T06:32:18.263Z,29.1
2023-03-07T06:37:56.675Z,29.4
2023-03-07T06:43:33.649Z,26.9
2023-03-07T06:49:29.561Z,26.3
2023-03-07T06:55:34.888Z,25.8
2023-03-07T07:01:29.371Z,30.4
2023-03-07T07:07:22.019Z,27.7
2023-03-07T07:13:14.106Z,26.4
2023-03-07T07:18:19.614Z,26.1
2023-03-07T07:24:12.788Z,28.9
2023-03-07T07:30:05.832Z,27
2023-03-07T07:35:59.223Z,26.3
2023-03-07T07:41:52.289Z,25.9
2023-03-07T07:47:44.364Z,25.7
2023-03-07T07:53:36.399Z,25.4
2023-03-07T07:59:29.099Z,25
2023-03-07T08:05:26.121Z,29.5
2023-03-07T08:11:18.436Z,27.1
2023-03-07T08:17:14.449Z,26.4
2023-03-07T08:23:07.694Z,26.1
2023-03-07T08:29:10.936Z,25.8
2023-03-07T08:35:04.286Z,25.5
2023-03-07T08:40:42.487Z,24.9
2023-03-07T08:46:35.408Z,29.9
2023-03-07T08:52:29.137Z,27
2023-03-07T08:58:22.466Z,26.4
2023-03-07T09:04:15.750Z,25.9
2023-03-07T09:10:08.569Z,25.6
2023-03-07T09:16:10.714Z,25.3
2023-03-07T09:22:05.612Z,25.3
2023-03-07T09:27:58.342Z,30.4
2023-03-07T09:33:35.751Z,26.4
2023-03-07T09:39:30.520Z,25.6
2023-03-07T09:45:23.708Z,25.4
2023-03-07T09:51:26.609Z,30
2023-03-07T09:57:04.082Z,26.7
2023-03-07T10:03:12.765Z,25.9
2023-03-07T10:09:08.213Z,25.7
2023-03-07T10:14:45.919Z,25.4
2023-03-07T10:20:40.982Z,30.1
2023-03-07T10:26:18.099Z,26.6
2023-03-07T10:32:11.088Z,25.7
2023-03-07T10:38:30.513Z,25.4
2023-03-07T10:44:23.626Z,29.9
2023-03-07T10:50:49.133Z,27.1
2023-03-07T10:56:29.436Z,26.3
2023-03-07T11:02:23.090Z,25.9
2023-03-07T11:08:23.490Z,25.6
2023-03-07T11:14:01.141Z,25.1
2023-03-07T11:19:32.504Z,24.7
2023-03-07T11:25:24.608Z,27.9
2023-03-07T11:31:02.653Z,28.3
2023-03-07T11:37:10.315Z,26.3
2023-03-07T11:43:01.731Z,25.9
2023-03-07T11:48:40.641Z,25.6
2023-03-07T11:54:33.688Z,25.4
2023-03-07T12:00:26.170Z,29.6
2023-03-07T12:06:03.583Z,27.1
2023-03-07T12:11:56.866Z,25.7
2023-03-07T12:17:50.247Z,25.3
2023-03-07T12:23:42.569Z,30.5
2023-03-07T12:29:21.957Z,26.3
2023-03-07T12:35:16.476Z,25.6
2023-03-07T12:40:54.914Z,24.9
2023-03-07T12:46:18.282Z,30.2
2023-03-07T12:52:18.348Z,26.3
2023-03-07T12:57:55.033Z,25.6
2023-03-07T13:03:33.161Z,25.1
2023-03-07T13:09:26.193Z,30.5
2023-03-07T13:15:20.330Z,26.8
2023-03-07T13:21:13.907Z,26.1
2023-03-07T13:26:51.159Z,25.8
2023-03-07T13:32:44.628Z,25.5
2023-03-07T13:38:22.209Z,25.3
2023-03-07T13:44:17.780Z,25
2023-03-07T13:50:09.717Z,24.7
2023-03-07T13:56:02.756Z,24.4
2023-03-07T14:01:58.176Z,24.1
2023-03-07T14:07:58.065Z,23.9
2023-03-07T14:13:56.995Z,23.6
2023-03-07T14:19:50.906Z,23.4
2023-03-07T14:25:44.228Z,23.2
2023-03-07T14:31:22.363Z,23.1
2023-03-07T14:37:18.145Z,22.8
2023-03-07T14:43:10.898Z,22.7
2023-03-07T14:49:04.385Z,22.5
2023-03-07T14:55:05.881Z,22.4
2023-03-07T15:01:08.093Z,22.3
2023-03-07T15:07:02.152Z,22.1
2023-03-07T15:12:55.681Z,22
2023-03-07T15:18:19.500Z,21.9
2023-03-07T15:24:13.107Z,21.8
2023-03-07T15:29:49.885Z,21.7
2023-03-07T15:35:42.357Z,21.6
2023-03-07T15:41:20.706Z,21.5
2023-03-07T15:46:58.113Z,21.4
2023-03-07T15:52:51.125Z,21.4
2023-03-07T15:58:43.947Z,21.3
2023-03-07T16:04:21.869Z,21.3
2023-03-07T16:15:05.582Z,21.1
2023-03-07T16:20:57.789Z,21
2023-03-07T16:26:36.411Z,21
2023-03-07T16:32:29.853Z,20.9
2023-03-07T16:37:36.857Z,20.9
2023-03-07T16:43:29.070Z,20.9
2023-03-07T16:49:22.971Z,20.8
2023-03-07T16:55:08.233Z,20.8
2023-03-07T17:01:01.492Z,20.8
2023-03-07T17:06:33.687Z,20.7
2023-03-07T17:12:40.272Z,20.6
2023-03-07T17:18:32.786Z,20.5
2023-03-07T17:24:25.720Z,20.3
2023-03-07T17:30:19.028Z,20.2
2023-03-07T17:36:11.815Z,20.1
2023-03-07T17:42:05.330Z,20
2023-03-07T17:47:57.912Z,19.9
2023-03-07T17:53:50.864Z,19.8
2023-03-07T17:59:44.142Z,19.8
2023-03-07T18:05:40.093Z,19.8
2023-03-07T18:11:45.933Z,19.9
2023-03-07T18:17:24.076Z,19.9
2023-03-07T18:23:19.462Z,19.9
2023-03-07T18:28:59.239Z,20
2023-03-07T18:34:52.573Z,20
2023-03-07T18:40:46.412Z,19.9
2023-03-07T18:46:39.490Z,19.9
2023-03-07T18:52:32.364Z,19.9
2023-03-07T18:58:10.590Z,19.9
2023-03-07T19:04:03.768Z,19.9
2023-03-07T19:09:42.745Z,19.9
2023-03-07T19:15:21.730Z,19.9
2023-03-07T19:21:14.104Z,19.9
2023-03-07T19:27:06.703Z,19.9
2023-03-07T19:32:44.381Z,19.9
2023-03-07T19:38:22.545Z,19.9
2023-03-07T19:44:15.162Z,19.9
2023-03-07T19:50:08.358Z,19.9
2023-03-07T19:56:00.503Z,19.9
2023-03-07T20:01:53.921Z,19.9
2023-03-07T20:07:46.045Z,25
2023-03-07T20:13:55.427Z,29.1
2023-03-07T20:19:48.520Z,28
2023-03-07T20:25:26.285Z,28.8
2023-03-07T20:31:19.143Z,28.1
2023-03-07T20:37:13.477Z,26.1
2023-03-07T20:43:06.704Z,30.3
2023-03-07T20:49:00.668Z,26.8
2023-03-07T20:54:54.324Z,26.1
2023-03-07T21:00:47.225Z,25.8
2023-03-07T21:06:24.325Z,25.5
2023-03-07T21:11:49.620Z,25.2
2023-03-07T21:17:26.914Z,26.4
2023-03-07T21:22:48.942Z,29.5
2023-03-07T21:28:41.912Z,27.6
2023-03-07T21:34:18.784Z,26.3
2023-03-07T21:39:55.814Z,25.9
2023-03-07T21:45:33.197Z,25.7
2023-03-07T21:51:26.217Z,25.3
2023-03-07T21:57:17.975Z,24.8
2023-03-07T22:02:55.386Z,28.6
2023-03-07T22:08:31.790Z,29
2023-03-07T22:14:08.836Z,26.2
2023-03-07T22:19:46.957Z,29.9
2023-03-07T22:25:24.395Z,29.8
2023-03-07T22:30:46.670Z,26.8
2023-03-07T22:36:24.560Z,25.9
2023-03-07T22:41:45.913Z,29.8
2023-03-07T22:47:22.651Z,29.6
2023-03-07T22:52:29.175Z,26.8
2023-03-07T22:58:21.694Z,26.3
2023-03-07T23:03:59.062Z,28.8
2023-03-07T23:09:52.379Z,30.9
2023-03-07T23:15:30.298Z,27.1
2023-03-07T23:21:11.098Z,26.1
2023-03-07T23:27:05.282Z,26.3
2023-03-07T23:32:58.135Z,29.9
2023-03-07T23:38:51.535Z,28.1
2023-03-07T23:44:45.237Z,26.5
2023-03-07T23:50:09.661Z,26.1
2023-03-07T23:55:47.162Z,28.3
